This is the latest recevied weather packets stored in our database for station/object KJ4AJP. If no packets are shown the sender has not sent any weather packets the latest 10 day(s).
| Time | Temp. | Humidity | Pressure | Rain* | Wind** | Luminosity | Snow |
|---|---|---|---|---|---|---|---|
| 1777493460 | 23.33° C | 58% | 1014.2 hPa | 0 mm | - | 291 W/m² | - |
| 1777493155 | 23.33° C | 60% | 1014.4 hPa | 0 mm | - | 682 W/m² | - |
| 1777492852 | 23.33° C | 57% | 1014.4 hPa | 0 mm | - | 707 W/m² | - |
| 1777492549 | 23.33° C | 59% | 1014.4 hPa | 0 mm | - | 745 W/m² | - |
| 1777492244 | 22.78° C | 60% | 1014.5 hPa | 0 mm | - | 735 W/m² | - |
| 1777491942 | 22.78° C | 64% | 1014.7 hPa | 0 mm | - | 735 W/m² | - |
| 1777491638 | 22.22° C | 59% | 1014.5 hPa | 0 mm | - | 822 W/m² | - |
| 1777491336 | 21.11° C | 64% | 1014.6 hPa | 0 mm | - | 819 W/m² | - |
| 1777491033 | 21.67° C | 59% | 1014.6 hPa | 0 mm | - | 207 W/m² | - |
| 1777490728 | 21.67° C | 61% | 1014.6 hPa | 0 mm | - | 764 W/m² | - |
| 1777490426 | 21.11° C | 63% | 1014.8 hPa | 0 mm | - | 806 W/m² | - |
| 1777490122 | 20.56° C | 63% | 1014.8 hPa | 0 mm | - | 812 W/m² | - |
| 1777489819 | 21.11° C | 64% | 1014.9 hPa | 0 mm | - | 189 W/m² | - |
| 1777489516 | 21.11° C | 63% | 1014.7 hPa | 0 mm | - | 835 W/m² | - |
| 1777489213 | 21.11° C | 63% | 1014.8 hPa | 0 mm | - | 860 W/m² | - |
| 1777488910 | 21.67° C | 61% | 1015 hPa | 0 mm | - | 315 W/m² | - |
| 1777488607 | 21.67° C | 61% | 1015.1 hPa | 0 mm | - | 945 W/m² | - |
| 1777488305 | 21.11° C | 70% | 1015.2 hPa | 0 mm | - | 956 W/m² | - |
| 1777488003 | 21.67° C | 61% | 1015 hPa | 0 mm | - | 342 W/m² | - |
| 1777487700 | 21.67° C | 61% | 1015 hPa | 0 mm | - | 287 W/m² | - |
| 1777487397 | 21.67° C | 61% | 1015 hPa | 0 mm | - | 700 W/m² | - |
| 1777487095 | 20.56° C | 68% | 1014.8 hPa | 0 mm | - | 711 W/m² | - |
| 1777486790 | 20.56° C | 67% | 1015.1 hPa | 0 mm | - | 422 W/m² | - |
| 1777486488 | 20.56° C | 66% | 1015.1 hPa | 0 mm | - | 470 W/m² | - |
| 1777486186 | 20.56° C | 67% | 1015.2 hPa | 0 mm | - | 680 W/m² | - |
* Rain latest hour (hover to see other rain measurements)
** Current wind speed in m/s (hover to see current wind gust speed)